createdAt,value
2018-10-12T00:00:56.399Z,98342.53
2018-10-12T00:03:26.824Z,98338.71
2018-10-12T00:05:57.869Z,98350.07
2018-10-12T00:08:29.075Z,98352.16
2018-10-12T00:10:59.804Z,98348.80
2018-10-12T00:13:30.791Z,98351.71
2018-10-12T00:16:01.448Z,98356.30
2018-10-12T00:18:32.217Z,98365.52
2018-10-12T00:21:03.051Z,98361.14
2018-10-12T00:23:33.585Z,98355.46
2018-10-12T00:26:04.748Z,98366.59
2018-10-12T00:28:35.672Z,98358.14
2018-10-12T00:31:06.401Z,98360.81
2018-10-12T00:33:37.011Z,98364.70
2018-10-12T00:36:08.130Z,98360.80
2018-10-12T00:38:39.090Z,98367.42
2018-10-12T00:41:09.740Z,98370.94
2018-10-12T00:43:40.580Z,98373.91
2018-10-12T00:46:11.420Z,98369.37
2018-10-12T00:48:42.233Z,98379.30
2018-10-12T00:51:12.972Z,98379.20
2018-10-12T00:53:43.633Z,98380.92
2018-10-12T00:56:14.427Z,98381.17
2018-10-12T00:58:45.175Z,98383.73
2018-10-12T01:01:17.727Z,98385.58
2018-10-12T01:03:48.936Z,98390.14
2018-10-12T01:06:19.808Z,98390.73
2018-10-12T01:08:51.071Z,98386.59
2018-10-12T01:11:22.144Z,98385.92
2018-10-12T01:13:53.393Z,98391.57
2018-10-12T01:16:24.425Z,98385.02
2018-10-12T01:18:55.232Z,98379.78
2018-10-12T01:21:26.378Z,98382.23
2018-10-12T01:23:57.429Z,98388.23
2018-10-12T01:26:28.414Z,98392.30
2018-10-12T01:28:59.394Z,98400.31
2018-10-12T01:31:30.143Z,98398.30
2018-10-12T01:34:00.959Z,98400.20
2018-10-12T01:36:31.715Z,98403.09
2018-10-12T01:39:02.321Z,98407.91
2018-10-12T01:41:33.088Z,98412.22
2018-10-12T01:44:03.891Z,98410.80
2018-10-12T01:46:34.723Z,98405.91
2018-10-12T01:49:05.564Z,98405.70
2018-10-12T01:51:36.612Z,98413.10
2018-10-12T01:54:07.538Z,98412.53
2018-10-12T01:56:38.504Z,98419.47
2018-10-12T01:59:09.107Z,98419.81
2018-10-12T02:01:39.710Z,98422.56
2018-10-12T02:04:10.287Z,98422.56
2018-10-12T02:06:40.944Z,98420.19
2018-10-12T02:09:11.531Z,98417.56
2018-10-12T02:11:42.165Z,98423.30
2018-10-12T02:14:12.747Z,98422.23
2018-10-12T02:16:43.580Z,98426.30
2018-10-12T02:19:14.852Z,98435.28
2018-10-12T02:21:46.250Z,98437.09
2018-10-12T02:24:18.718Z,98446.89
2018-10-12T02:26:49.667Z,98454.52
2018-10-12T02:29:21.734Z,98455.25
2018-10-12T02:31:53.986Z,98459.67
2018-10-12T02:34:25.515Z,98461.45
2018-10-12T02:36:56.829Z,98457.87
2018-10-12T02:39:27.547Z,98467.17
2018-10-12T02:41:58.252Z,98473.86
2018-10-12T02:44:28.647Z,98474.13
2018-10-12T02:46:59.667Z,98473.75
2018-10-12T02:49:30.416Z,98481.38
2018-10-12T02:52:01.268Z,98476.73
2018-10-12T02:54:32.311Z,98483.05
2018-10-12T02:57:03.214Z,98486.88
2018-10-12T02:59:33.992Z,98491.64
2018-10-12T03:02:08.003Z,98493.08
2018-10-12T03:04:38.736Z,98498.56
2018-10-12T03:07:09.450Z,98502.50
2018-10-12T03:09:40.195Z,98511.34
2018-10-12T03:12:11.035Z,98515.85
2018-10-12T03:14:42.692Z,98523.14
2018-10-12T03:17:14.055Z,98519.43
2018-10-12T03:19:47.388Z,98523.59
2018-10-12T03:22:20.139Z,98526.45
2018-10-12T03:24:51.056Z,98525.63
2018-10-12T03:27:21.923Z,98519.30
2018-10-12T03:29:53.399Z,98517.73
2018-10-12T03:32:24.173Z,98515.94
2018-10-12T03:34:55.079Z,98524.04
2018-10-12T03:37:26.093Z,98527.38
2018-10-12T03:39:56.768Z,98524.98
2018-10-12T03:42:28.104Z,98524.39
2018-10-12T03:44:59.239Z,98533.58
2018-10-12T03:47:31.735Z,98535.57
2018-10-12T03:50:02.999Z,98538.65
2018-10-12T03:52:33.946Z,98533.41
2018-10-12T03:55:04.904Z,98545.77
2018-10-12T03:57:35.908Z,98542.92
2018-10-12T04:00:06.818Z,98543.86
2018-10-12T04:02:37.870Z,98553.16
2018-10-12T04:05:08.795Z,98550.27
2018-10-12T04:07:39.439Z,98548.14
2018-10-12T04:10:10.294Z,98553.49
2018-10-12T04:12:41.325Z,98558.25
2018-10-12T04:15:12.171Z,98568.63
2018-10-12T04:17:46.167Z,98566.45
2018-10-12T04:20:17.311Z,98563.95
2018-10-12T04:22:48.623Z,98570.16
2018-10-12T04:25:21.731Z,98570.73
2018-10-12T04:27:54.442Z,98576.45
2018-10-12T04:30:25.360Z,98578.36
2018-10-12T04:32:56.211Z,98582.63
2018-10-12T04:35:29.059Z,98589.67
2018-10-12T04:37:59.897Z,98585.70
2018-10-12T04:41:14.996Z,98575.33
2018-10-12T04:43:46.882Z,98591.77
2018-10-12T04:46:22.471Z,98597.22
2018-10-12T04:48:53.816Z,98597.00
2018-10-12T04:51:36.467Z,98603.02
2018-10-12T04:54:08.010Z,98607.17
2018-10-12T04:56:39.021Z,98607.88
2018-10-12T04:59:09.650Z,98604.42
2018-10-12T05:01:40.304Z,98611.91
2018-10-12T05:04:11.070Z,98605.95
2018-10-12T05:06:41.478Z,98605.58
2018-10-12T05:09:13.372Z,98612.08
2018-10-12T05:11:44.635Z,98615.30
2018-10-12T05:14:15.247Z,98618.12
2018-10-12T05:16:48.166Z,98622.89
2018-10-12T05:19:22.383Z,98629.55
2018-10-12T05:21:53.188Z,98630.96
2018-10-12T05:24:24.744Z,98643.23
2018-10-12T05:26:57.116Z,98643.45
2018-10-12T05:29:27.765Z,98643.07
2018-10-12T05:31:58.562Z,98657.48
2018-10-12T05:34:29.167Z,98657.48
2018-10-12T05:36:59.760Z,98657.62
2018-10-12T05:39:30.444Z,98665.72
2018-10-12T05:42:01.781Z,98671.27
2018-10-12T05:44:34.550Z,98672.03
2018-10-12T05:47:05.347Z,98677.50
2018-10-12T05:49:53.602Z,98677.88
2018-10-12T05:52:30.256Z,98682.91
2018-10-12T05:55:02.740Z,98681.22
2018-10-12T05:57:40.112Z,98686.84
2018-10-12T06:00:11.719Z,98690.90
2018-10-12T06:02:42.379Z,98692.23
2018-10-12T06:05:12.961Z,98696.02
2018-10-12T06:07:43.618Z,98706.63
2018-10-12T06:10:14.344Z,98712.41
2018-10-12T06:12:45.328Z,98708.01
2018-10-12T06:15:16.206Z,98710.95
2018-10-12T06:17:50.813Z,98708.59
2018-10-12T06:20:26.071Z,98710.44
2018-10-12T06:22:58.801Z,98719.58
2018-10-12T06:25:29.693Z,98721.52
2018-10-12T06:28:00.784Z,98728.73
2018-10-12T06:30:36.451Z,98731.87
2018-10-12T06:33:07.436Z,98739.56
2018-10-12T06:35:42.461Z,98748.08
2018-10-12T06:38:13.070Z,98754.80
2018-10-12T06:40:45.506Z,98755.41
2018-10-12T06:43:16.299Z,98757.30
2018-10-12T06:45:47.562Z,98762.59
2018-10-12T06:48:18.323Z,98768.78
2018-10-12T06:50:48.955Z,98772.00
2018-10-12T06:53:20.875Z,98776.55
2018-10-12T06:55:51.540Z,98771.88
2018-10-12T06:58:22.283Z,98780.23
2018-10-12T07:00:54.807Z,98784.14
2018-10-12T07:03:26.274Z,98790.09
2018-10-12T07:05:57.032Z,98791.81
2018-10-12T07:08:29.255Z,98793.05
2018-10-12T07:11:03.965Z,98803.98
2018-10-12T07:13:34.837Z,98796.67
2018-10-12T07:16:05.658Z,98794.72
2018-10-12T07:18:36.607Z,98799.07
2018-10-12T07:21:07.432Z,98793.02
2018-10-12T07:23:38.280Z,98793.73
2018-10-12T07:26:09.112Z,98799.38
2018-10-12T07:28:39.926Z,98808.91
2018-10-12T07:31:12.062Z,98814.34
2018-10-12T07:33:42.794Z,98812.49
2018-10-12T07:36:13.424Z,98814.12
2018-10-12T07:38:44.140Z,98809.63
2018-10-12T07:41:15.170Z,98817.45
2018-10-12T07:43:45.873Z,98823.44
2018-10-12T07:46:17.525Z,98828.76
2018-10-12T07:48:48.759Z,98827.95
2018-10-12T07:51:20.035Z,98836.78
2018-10-12T07:53:50.705Z,98835.37
2018-10-12T07:56:21.740Z,98831.02
2018-10-12T07:58:52.456Z,98838.26
2018-10-12T08:01:23.850Z,98831.28
2018-10-12T08:03:55.472Z,98835.37
2018-10-12T08:06:26.882Z,98841.56
2018-10-12T08:09:01.236Z,98843.13
2018-10-12T08:11:32.307Z,98847.95
2018-10-12T08:14:03.267Z,98847.38
2018-10-12T08:16:34.114Z,98846.70
2018-10-12T08:19:05.036Z,98842.57
2018-10-12T08:21:35.692Z,98844.91
2018-10-12T08:24:06.748Z,98846.80
2018-10-12T08:26:38.001Z,98834.72
2018-10-12T08:29:12.306Z,98836.41
2018-10-12T08:31:43.406Z,98842.11
2018-10-12T08:34:14.568Z,98838.45
2018-10-12T08:36:45.405Z,98838.41
2018-10-12T08:39:16.184Z,98845.34
2018-10-12T08:41:46.997Z,98839.89
2018-10-12T08:44:17.929Z,98835.80
2018-10-12T08:46:49.083Z,98832.52
2018-10-12T08:49:19.467Z,98837.23
2018-10-12T08:51:50.477Z,98837.29
2018-10-12T08:54:23.154Z,98838.66
2018-10-12T08:56:58.230Z,98838.50
2018-10-12T08:59:29.294Z,98838.49
2018-10-12T09:02:02.013Z,98835.70
2018-10-12T09:04:32.700Z,98833.48
2018-10-12T09:07:04.040Z,98835.31
2018-10-12T09:09:34.652Z,98838.23
2018-10-12T09:12:06.835Z,98846.73
2018-10-12T09:14:39.595Z,98845.19
2018-10-12T09:17:10.493Z,98844.11
2018-10-12T09:19:41.144Z,98842.72
2018-10-12T09:22:11.760Z,98843.64
2018-10-12T09:24:42.560Z,98844.63
2018-10-12T09:27:13.183Z,98845.98
2018-10-12T09:29:43.936Z,98848.48
2018-10-12T09:32:15.988Z,98849.76
2018-10-12T09:34:47.567Z,98854.05
2018-10-12T09:37:19.094Z,98843.28
2018-10-12T09:39:50.342Z,98849.07
2018-10-12T09:42:24.660Z,98854.70
2018-10-12T09:44:55.606Z,98855.70
2018-10-12T09:47:28.353Z,98859.53
2018-10-12T09:49:59.097Z,98860.52
2018-10-12T09:52:30.136Z,98863.05
2018-10-12T09:55:01.691Z,98853.02
2018-10-12T09:57:37.755Z,98851.41
2018-10-12T10:00:12.734Z,98857.00
2018-10-12T10:02:48.576Z,98857.17
2018-10-12T10:05:19.378Z,98852.38
2018-10-12T10:07:50.210Z,98857.64
2018-10-12T10:10:21.008Z,98859.80
2018-10-12T10:12:51.538Z,98853.25
2018-10-12T10:15:22.257Z,98850.24
2018-10-12T10:17:57.409Z,98845.72
2018-10-12T10:20:28.324Z,98848.14
2018-10-12T10:22:59.440Z,98845.88
2018-10-12T10:25:30.246Z,98844.97
2018-10-12T10:28:00.780Z,98846.77
2018-10-12T10:30:31.399Z,98847.72
2018-10-12T10:33:02.134Z,98843.80
2018-10-12T10:35:32.861Z,98849.33
2018-10-12T10:38:05.184Z,98842.42
2018-10-12T10:40:35.995Z,98841.58
2018-10-12T10:43:06.907Z,98833.85
2018-10-12T10:45:37.955Z,98834.83
2018-10-12T10:48:08.644Z,98826.92
2018-10-12T10:50:39.308Z,98829.38
2018-10-12T10:53:10.418Z,98826.31
2018-10-12T10:55:41.087Z,98828.27
2018-10-12T10:58:13.290Z,98823.82
2018-10-12T11:00:44.024Z,98822.55
2018-10-12T11:03:14.829Z,98824.52
2018-10-12T11:05:45.316Z,98823.48
2018-10-12T11:08:16.087Z,98818.47
2018-10-12T11:10:46.939Z,98807.31
2018-10-12T11:13:17.335Z,98809.63
2018-10-12T11:15:48.062Z,98808.95
2018-10-12T11:18:19.678Z,98808.31
2018-10-12T11:20:51.611Z,98805.52
2018-10-12T11:23:22.521Z,98801.51
2018-10-12T11:25:53.948Z,98803.48
2018-10-12T11:28:27.984Z,98801.59
2018-10-12T11:30:59.055Z,98795.69
2018-10-12T11:33:34.419Z,98793.80
2018-10-12T11:36:05.324Z,98794.10
2018-10-12T11:38:36.270Z,98784.89
2018-10-12T11:41:08.439Z,98779.72
2018-10-12T11:43:39.693Z,98781.69
2018-10-12T11:46:10.592Z,98779.98
2018-10-12T11:48:41.167Z,98777.12
2018-10-12T11:51:12.075Z,98771.72
2018-10-12T11:53:42.903Z,98768.20
2018-10-12T11:56:13.540Z,98768.72
2018-10-12T11:58:43.906Z,98761.58
2018-10-12T12:01:14.583Z,98766.15
2018-10-12T12:03:45.344Z,98761.63
2018-10-12T12:06:16.051Z,98762.84
2018-10-12T12:08:46.643Z,98767.16
2018-10-12T12:11:17.626Z,98758.50
2018-10-12T12:13:48.412Z,98757.16
2018-10-12T12:16:19.543Z,98760.84
2018-10-12T12:18:50.259Z,98752.88
2018-10-12T12:21:21.600Z,98757.38
2018-10-12T12:23:52.376Z,98751.45
2018-10-12T12:26:23.156Z,98755.47
2018-10-12T12:28:54.005Z,98752.94
2018-10-12T12:31:24.643Z,98754.36
2018-10-12T12:33:57.035Z,98762.84
2018-10-12T12:36:29.410Z,98761.31
2018-10-12T12:39:01.952Z,98756.30
2018-10-12T12:41:33.272Z,98757.64
2018-10-12T12:44:04.750Z,98752.98
2018-10-12T12:46:36.160Z,98748.12
2018-10-12T12:49:07.563Z,98744.81
2018-10-12T12:51:38.088Z,98748.01
2018-10-12T12:54:10.618Z,98745.81
2018-10-12T12:56:41.416Z,98747.16
2018-10-12T12:59:12.093Z,98749.72
2018-10-12T13:01:42.964Z,98746.52
2018-10-12T13:04:13.885Z,98743.11
2018-10-12T13:06:44.479Z,98746.42
2018-10-12T13:09:15.519Z,98742.59
2018-10-12T13:11:46.095Z,98740.43
2018-10-12T13:14:16.839Z,98748.27
2018-10-12T13:16:47.461Z,98750.20
2018-10-12T13:19:18.319Z,98743.63
2018-10-12T13:21:49.208Z,98745.75
2018-10-12T13:24:19.956Z,98747.91
2018-10-12T13:26:50.800Z,98741.73
2018-10-12T13:29:21.579Z,98748.57
2018-10-12T13:31:52.380Z,98741.63
2018-10-12T13:34:23.523Z,98748.97
2018-10-12T13:36:54.215Z,98749.16
2018-10-12T13:39:24.838Z,98748.02
2018-10-12T13:41:56.089Z,98747.67
2018-10-12T13:44:31.250Z,98753.84
2018-10-12T13:47:02.092Z,98753.55
2018-10-12T13:49:33.132Z,98757.23
2018-10-12T13:52:03.842Z,98753.55
2018-10-12T13:54:34.508Z,98750.87
2018-10-12T13:57:05.793Z,98747.34
2018-10-12T13:59:36.736Z,98753.25
2018-10-12T14:02:08.899Z,98754.36
2018-10-12T14:04:39.692Z,98749.41
2018-10-12T14:07:13.003Z,98754.77
2018-10-12T14:09:43.996Z,98753.95
2018-10-12T14:12:14.638Z,98750.27
2018-10-12T14:14:45.287Z,98749.11
2018-10-12T14:17:19.380Z,98744.95
2018-10-12T14:19:50.131Z,98736.78
2018-10-12T14:22:24.987Z,98739.64
2018-10-12T14:24:56.745Z,98739.64
2018-10-12T14:27:27.552Z,98738.85
2018-10-12T14:29:58.387Z,98742.38
2018-10-12T14:32:28.785Z,98743.20
2018-10-12T14:34:59.584Z,98737.33
2018-10-12T14:37:30.163Z,98735.99
2018-10-12T14:40:01.016Z,98738.66
2018-10-12T14:42:31.623Z,98737.21
2018-10-12T14:45:02.385Z,98736.36
2018-10-12T14:47:33.530Z,98732.05
2018-10-12T14:50:04.488Z,98733.56
2018-10-12T14:52:35.055Z,98737.24
2018-10-12T14:55:05.732Z,98734.23
2018-10-12T14:57:36.686Z,98733.27
2018-10-12T15:00:09.328Z,98733.45
2018-10-12T15:02:39.908Z,98736.83
2018-10-12T15:05:10.505Z,98735.15
2018-10-12T15:07:41.100Z,98734.22
2018-10-12T15:10:11.656Z,98742.08
2018-10-12T15:12:42.248Z,98744.30
2018-10-12T15:15:19.053Z,98741.95
2018-10-12T15:17:50.814Z,98737.34
2018-10-12T15:20:21.896Z,98742.19
2018-10-12T15:22:52.559Z,98740.06
2018-10-12T15:25:23.249Z,98734.45
2018-10-12T15:27:54.503Z,98732.92
2018-10-12T15:30:25.077Z,98737.63
2018-10-12T15:32:55.697Z,98738.12
2018-10-12T15:35:26.580Z,98735.98
2018-10-12T15:37:57.455Z,98738.17
2018-10-12T15:40:28.104Z,98732.86
2018-10-12T15:42:59.144Z,98739.77
2018-10-12T15:45:30.133Z,98741.48
2018-10-12T15:48:00.727Z,98737.38
2018-10-12T15:50:31.371Z,98743.74
2018-10-12T15:53:02.349Z,98745.48
2018-10-12T15:55:32.993Z,98743.16
2018-10-12T15:58:03.636Z,98743.38
2018-10-12T16:00:34.223Z,98741.73
2018-10-12T16:03:05.214Z,98738.43
2018-10-12T16:05:35.839Z,98739.01
2018-10-12T16:08:06.578Z,98740.55
2018-10-12T16:10:37.175Z,98745.45
2018-10-12T16:13:07.788Z,98748.48
2018-10-12T16:15:38.392Z,98752.84
2018-10-12T16:18:09.007Z,98750.87
2018-10-12T16:20:39.857Z,98748.87
2018-10-12T16:23:10.478Z,98749.91
2018-10-12T16:26:00.768Z,98748.61
2018-10-12T16:28:31.363Z,98745.30
2018-10-12T16:31:02.065Z,98752.31
2018-10-12T16:33:32.660Z,98751.66
2018-10-12T16:36:03.292Z,98755.70
2018-10-12T16:38:34.093Z,98758.39
2018-10-12T16:41:04.731Z,98762.91
2018-10-12T16:43:35.517Z,98758.42
2018-10-12T16:46:06.376Z,98759.73
2018-10-12T16:48:36.996Z,98760.91
2018-10-12T16:51:07.975Z,98762.74
2018-10-12T16:53:38.617Z,98767.27
2018-10-12T16:56:09.248Z,98761.09
2018-10-12T16:58:39.956Z,98763.25
2018-10-12T17:01:10.608Z,98760.92
2018-10-12T17:03:41.207Z,98763.08
2018-10-12T17:06:11.788Z,98766.70
2018-10-12T17:08:42.475Z,98770.17
2018-10-12T17:11:13.104Z,98776.66
2018-10-12T17:13:43.755Z,98780.30
2018-10-12T17:16:14.364Z,98779.77
2018-10-12T17:18:44.985Z,98787.21
2018-10-12T17:21:15.770Z,98786.16
2018-10-12T17:23:46.363Z,98783.25
2018-10-12T17:26:17.241Z,98784.05
2018-10-12T17:28:48.097Z,98785.62
2018-10-12T17:31:18.753Z,98793.88
2018-10-12T17:33:49.348Z,98795.67
2018-10-12T17:36:20.005Z,98797.39
2018-10-12T17:38:50.618Z,98799.33
2018-10-12T17:41:21.683Z,98801.90
2018-10-12T17:43:52.259Z,98798.84
2018-10-12T17:46:22.842Z,98801.09
2018-10-12T17:48:53.432Z,98805.78
2018-10-12T17:51:24.040Z,98805.22
2018-10-12T17:53:54.688Z,98811.78
2018-10-12T17:56:25.491Z,98818.81
2018-10-12T17:58:56.363Z,98817.92
2018-10-12T18:01:26.984Z,98823.62
2018-10-12T18:03:57.606Z,98818.91
2018-10-12T18:06:28.571Z,98829.41
2018-10-12T18:08:59.210Z,98821.52
2018-10-12T18:11:29.994Z,98822.78
2018-10-12T18:14:04.009Z,98825.52
2018-10-12T18:16:34.640Z,98830.23
2018-10-12T18:19:06.124Z,98834.79
2018-10-12T18:21:36.734Z,98831.90
2018-10-12T18:24:07.920Z,98837.46
2018-10-12T18:26:38.555Z,98837.53
2018-10-12T18:29:09.452Z,98829.81
2018-10-12T18:31:40.284Z,98833.89
2018-10-12T18:34:11.332Z,98835.30
2018-10-12T18:36:41.988Z,98837.55
2018-10-12T18:39:12.811Z,98832.80
2018-10-12T18:41:44.133Z,98834.55
2018-10-12T18:44:14.739Z,98835.94
2018-10-12T18:46:45.443Z,98842.52
2018-10-12T18:49:16.127Z,98840.44
2018-10-12T18:51:47.364Z,98836.03
2018-10-12T18:54:17.937Z,98837.31
2018-10-12T18:56:49.065Z,98833.41
2018-10-12T18:59:19.681Z,98835.80
2018-10-12T19:01:50.299Z,98830.10
2018-10-12T19:04:20.903Z,98833.50
2018-10-12T19:06:52.091Z,98837.61
2018-10-12T19:09:22.708Z,98845.14
2018-10-12T19:11:53.336Z,98844.88
2018-10-12T19:14:24.046Z,98845.42
2018-10-12T19:16:54.678Z,98852.45
2018-10-12T19:19:25.344Z,98860.44
2018-10-12T19:21:56.140Z,98855.66
2018-10-12T19:24:26.813Z,98863.32
2018-10-12T19:26:57.464Z,98859.08
2018-10-12T19:29:28.181Z,98857.67
2018-10-12T19:31:58.957Z,98861.68
2018-10-12T19:34:29.735Z,98866.41
2018-10-12T19:37:00.382Z,98869.46
2018-10-12T19:39:31.042Z,98867.22
2018-10-12T19:42:01.633Z,98867.99
2018-10-12T19:44:32.298Z,98867.57
2018-10-12T19:47:02.938Z,98875.77
2018-10-12T19:49:33.986Z,98871.97
2018-10-12T19:52:04.298Z,98874.39
2018-10-12T19:54:34.916Z,98880.08
2018-10-12T19:57:05.630Z,98880.84
2018-10-12T19:59:36.234Z,98888.53
2018-10-12T20:02:06.902Z,98881.30
2018-10-12T20:04:37.509Z,98895.95
2018-10-12T20:07:08.118Z,98892.03
2018-10-12T20:09:38.744Z,98893.97
2018-10-12T20:12:09.433Z,98907.93
2018-10-12T20:14:40.028Z,98902.19
2018-10-12T20:17:10.833Z,98901.75
2018-10-12T20:19:41.427Z,98894.84
2018-10-12T20:22:12.468Z,98900.77
2018-10-12T20:24:43.104Z,98902.11
2018-10-12T20:27:13.726Z,98905.99
2018-10-12T20:29:44.327Z,98911.86
2018-10-12T20:32:15.174Z,98905.77
2018-10-12T20:34:45.791Z,98907.02
2018-10-12T20:37:16.615Z,98904.97
2018-10-12T20:39:47.296Z,98903.56
2018-10-12T20:42:17.939Z,98910.41
2018-10-12T20:44:48.784Z,98913.31
2018-10-12T20:47:19.395Z,98914.88
2018-10-12T20:49:50.058Z,98913.81
2018-10-12T20:52:20.781Z,98911.80
2018-10-12T20:54:51.464Z,98912.63
2018-10-12T20:57:22.056Z,98911.56
2018-10-12T20:59:52.736Z,98910.87
2018-10-12T21:02:23.354Z,98908.11
2018-10-12T21:04:54.455Z,98909.35
2018-10-12T21:07:25.119Z,98906.10
2018-10-12T21:09:55.785Z,98906.94
2018-10-12T21:12:26.377Z,98902.16
2018-10-12T21:14:57.035Z,98905.05
2018-10-12T21:17:27.689Z,98906.16
2018-10-12T21:19:58.348Z,98909.04
2018-10-12T21:22:29.063Z,98906.28
2018-10-12T21:24:59.653Z,98901.75
2018-10-12T21:27:30.684Z,98903.77
2018-10-12T21:30:01.401Z,98903.20
2018-10-12T21:32:32.004Z,98902.95
2018-10-12T21:35:02.618Z,98903.81
2018-10-12T21:37:33.287Z,98906.56
2018-10-12T21:40:03.888Z,98905.16
2018-10-12T21:42:34.543Z,98903.47
2018-10-12T21:45:05.165Z,98903.71
2018-10-12T21:47:36.023Z,98905.15
2018-10-12T21:50:07.303Z,98904.45
2018-10-12T21:52:37.956Z,98907.20
2018-10-12T21:55:08.682Z,98900.16
2018-10-12T21:57:39.299Z,98892.61
2018-10-12T22:00:10.621Z,98895.95
2018-10-12T22:02:41.280Z,98893.09
2018-10-12T22:05:12.007Z,98887.22
2018-10-12T22:07:42.647Z,98890.09
2018-10-12T22:10:13.271Z,98885.92
2018-10-12T22:12:43.884Z,98893.94
2018-10-12T22:15:14.730Z,98890.72
2018-10-12T22:17:45.365Z,98885.44
2018-10-12T22:20:16.016Z,98891.20
2018-10-12T22:22:46.608Z,98900.25
2018-10-12T22:25:17.198Z,98892.70
2018-10-12T22:27:47.823Z,98893.44
2018-10-12T22:30:18.448Z,98892.36
2018-10-12T22:32:49.042Z,98882.52
2018-10-12T22:35:19.698Z,98890.20
2018-10-12T22:37:50.312Z,98889.58
2018-10-12T22:40:21.183Z,98887.55
2018-10-12T22:42:51.820Z,98887.91
2018-10-12T22:45:22.736Z,98890.43
2018-10-12T22:47:53.384Z,98885.03
2018-10-12T22:50:24.017Z,98887.90
2018-10-12T22:52:54.643Z,98886.70
2018-10-12T22:55:25.239Z,98879.41
2018-10-12T22:58:00.605Z,98880.84
2018-10-12T23:00:32.721Z,98873.76
2018-10-12T23:03:03.407Z,98869.59
2018-10-12T23:05:33.988Z,98869.94
2018-10-12T23:08:04.610Z,98868.25
2018-10-12T23:10:34.941Z,98861.42
2018-10-12T23:13:05.785Z,98862.86
2018-10-12T23:15:38.105Z,98860.45
2018-10-12T23:18:09.075Z,98860.35
2018-10-12T23:20:39.626Z,98862.73
2018-10-12T23:23:10.225Z,98857.36
2018-10-12T23:25:40.809Z,98853.16
2018-10-12T23:28:11.375Z,98855.53
2018-10-12T23:30:41.973Z,98856.73
2018-10-12T23:33:29.253Z,98848.59
2018-10-12T23:35:59.860Z,98856.83
2018-10-12T23:38:30.400Z,98858.11
2018-10-12T23:41:01.004Z,98864.91
2018-10-12T23:43:31.597Z,98862.39
2018-10-12T23:46:02.227Z,98862.16
2018-10-12T23:48:32.841Z,98866.59
2018-10-12T23:51:03.461Z,98861.91
2018-10-12T23:53:34.033Z,98862.39
2018-10-12T23:56:04.773Z,98859.59
2018-10-12T23:58:35.502Z,98862.70
